sensor_id;sensor_type;location;lat;lon;timestamp;P1;durP1;ratioP1;P2;durP2;ratioP2
70433;SDS011;57876;47.792;12.960;2023-12-20T00:02:11;14.47;;;5.93;;
70433;SDS011;57876;47.792;12.960;2023-12-20T00:04:35;12.50;;;5.57;;
70433;SDS011;57876;47.792;12.960;2023-12-20T00:06:59;13.63;;;5.57;;
70433;SDS011;57876;47.792;12.960;2023-12-20T00:09:24;14.23;;;5.57;;
70433;SDS011;57876;47.792;12.960;2023-12-20T00:11:48;14.17;;;6.00;;
70433;SDS011;57876;47.792;12.960;2023-12-20T00:14:13;11.40;;;5.53;;
70433;SDS011;57876;47.792;12.960;2023-12-20T00:16:37;14.47;;;6.00;;
70433;SDS011;57876;47.792;12.960;2023-12-20T00:19:01;14.83;;;5.93;;
70433;SDS011;57876;47.792;12.960;2023-12-20T00:21:26;13.13;;;5.40;;
70433;SDS011;57876;47.792;12.960;2023-12-20T00:23:50;13.03;;;5.70;;
70433;SDS011;57876;47.792;12.960;2023-12-20T00:26:14;12.60;;;5.77;;
70433;SDS011;57876;47.792;12.960;2023-12-20T00:28:39;12.63;;;5.67;;
70433;SDS011;57876;47.792;12.960;2023-12-20T00:31:03;11.67;;;5.50;;
70433;SDS011;57876;47.792;12.960;2023-12-20T00:33:28;12.77;;;6.05;;
70433;SDS011;57876;47.792;12.960;2023-12-20T00:35:52;12.37;;;5.40;;
70433;SDS011;57876;47.792;12.960;2023-12-20T00:38:17;12.50;;;5.37;;
70433;SDS011;57876;47.792;12.960;2023-12-20T00:40:41;12.40;;;5.55;;
70433;SDS011;57876;47.792;12.960;2023-12-20T00:43:06;14.23;;;5.90;;
70433;SDS011;57876;47.792;12.960;2023-12-20T00:45:30;12.73;;;5.90;;
70433;SDS011;57876;47.792;12.960;2023-12-20T00:47:54;12.23;;;4.83;;
70433;SDS011;57876;47.792;12.960;2023-12-20T00:50:19;12.80;;;5.70;;
70433;SDS011;57876;47.792;12.960;2023-12-20T00:52:45;12.25;;;5.25;;
70433;SDS011;57876;47.792;12.960;2023-12-20T00:55:10;11.50;;;5.55;;
70433;SDS011;57876;47.792;12.960;2023-12-20T00:57:34;11.57;;;5.07;;
70433;SDS011;57876;47.792;12.960;2023-12-20T00:59:59;11.30;;;4.70;;
70433;SDS011;57876;47.792;12.960;2023-12-20T01:02:23;12.23;;;5.17;;
70433;SDS011;57876;47.792;12.960;2023-12-20T01:04:47;11.17;;;4.83;;
70433;SDS011;57876;47.792;12.960;2023-12-20T01:07:12;11.43;;;4.93;;
70433;SDS011;57876;47.792;12.960;2023-12-20T01:09:36;11.00;;;4.70;;
70433;SDS011;57876;47.792;12.960;2023-12-20T01:12:01;11.10;;;4.60;;
70433;SDS011;57876;47.792;12.960;2023-12-20T01:14:25;11.87;;;5.10;;
70433;SDS011;57876;47.792;12.960;2023-12-20T01:16:49;11.27;;;4.20;;
70433;SDS011;57876;47.792;12.960;2023-12-20T01:19:14;11.00;;;5.27;;
70433;SDS011;57876;47.792;12.960;2023-12-20T01:21:41;10.75;;;4.70;;
70433;SDS011;57876;47.792;12.960;2023-12-20T01:24:05;11.50;;;4.80;;
70433;SDS011;57876;47.792;12.960;2023-12-20T01:26:30;9.38;;;4.10;;
70433;SDS011;57876;47.792;12.960;2023-12-20T01:28:54;10.40;;;4.33;;
70433;SDS011;57876;47.792;12.960;2023-12-20T01:31:19;9.83;;;4.00;;
70433;SDS011;57876;47.792;12.960;2023-12-20T01:33:43;11.03;;;4.77;;
70433;SDS011;57876;47.792;12.960;2023-12-20T01:36:07;10.80;;;4.77;;
70433;SDS011;57876;47.792;12.960;2023-12-20T01:38:32;10.60;;;4.22;;
70433;SDS011;57876;47.792;12.960;2023-12-20T01:40:57;10.03;;;4.53;;
70433;SDS011;57876;47.792;12.960;2023-12-20T01:43:22;9.67;;;4.20;;
70433;SDS011;57876;47.792;12.960;2023-12-20T01:45:46;9.03;;;3.90;;
70433;SDS011;57876;47.792;12.960;2023-12-20T01:48:11;9.77;;;4.38;;
70433;SDS011;57876;47.792;12.960;2023-12-20T01:50:36;11.03;;;4.20;;
70433;SDS011;57876;47.792;12.960;2023-12-20T01:53:02;10.23;;;4.47;;
70433;SDS011;57876;47.792;12.960;2023-12-20T01:55:30;9.27;;;4.28;;
70433;SDS011;57876;47.792;12.960;2023-12-20T01:57:57;10.10;;;4.10;;
70433;SDS011;57876;47.792;12.960;2023-12-20T02:00:22;9.32;;;3.88;;
70433;SDS011;57876;47.792;12.960;2023-12-20T02:02:47;11.13;;;4.72;;
70433;SDS011;57876;47.792;12.960;2023-12-20T02:05:13;9.57;;;3.80;;
70433;SDS011;57876;47.792;12.960;2023-12-20T02:07:38;9.17;;;4.20;;
70433;SDS011;57876;47.792;12.960;2023-12-20T02:10:02;9.93;;;4.20;;
70433;SDS011;57876;47.792;12.960;2023-12-20T02:12:28;9.55;;;4.03;;
70433;SDS011;57876;47.792;12.960;2023-12-20T02:14:52;9.83;;;4.33;;
70433;SDS011;57876;47.792;12.960;2023-12-20T02:17:18;9.07;;;4.10;;
70433;SDS011;57876;47.792;12.960;2023-12-20T02:19:43;8.83;;;3.60;;
70433;SDS011;57876;47.792;12.960;2023-12-20T02:24:32;9.50;;;4.03;;
70433;SDS011;57876;47.792;12.960;2023-12-20T02:26:57;8.75;;;3.53;;
70433;SDS011;57876;47.792;12.960;2023-12-20T02:29:21;9.53;;;3.73;;
70433;SDS011;57876;47.792;12.960;2023-12-20T02:31:46;9.47;;;3.70;;
70433;SDS011;57876;47.792;12.960;2023-12-20T02:34:10;8.63;;;3.53;;
70433;SDS011;57876;47.792;12.960;2023-12-20T02:36:34;9.48;;;3.78;;
70433;SDS011;57876;47.792;12.960;2023-12-20T02:38:59;9.20;;;3.30;;
70433;SDS011;57876;47.792;12.960;2023-12-20T02:41:23;8.63;;;3.63;;
70433;SDS011;57876;47.792;12.960;2023-12-20T02:43:47;9.00;;;3.80;;
70433;SDS011;57876;47.792;12.960;2023-12-20T02:46:12;8.33;;;3.30;;
70433;SDS011;57876;47.792;12.960;2023-12-20T02:48:39;7.70;;;3.28;;
70433;SDS011;57876;47.792;12.960;2023-12-20T02:51:04;8.40;;;3.30;;
70433;SDS011;57876;47.792;12.960;2023-12-20T02:53:28;8.63;;;3.60;;
70433;SDS011;57876;47.792;12.960;2023-12-20T02:55:52;8.23;;;3.30;;
70433;SDS011;57876;47.792;12.960;2023-12-20T02:58:17;7.87;;;3.17;;
70433;SDS011;57876;47.792;12.960;2023-12-20T03:00:41;7.63;;;3.10;;
70433;SDS011;57876;47.792;12.960;2023-12-20T03:03:06;7.50;;;3.27;;
70433;SDS011;57876;47.792;12.960;2023-12-20T03:05:30;8.73;;;3.67;;
70433;SDS011;57876;47.792;12.960;2023-12-20T03:07:55;9.00;;;3.20;;
70433;SDS011;57876;47.792;12.960;2023-12-20T03:10:19;8.40;;;3.20;;
70433;SDS011;57876;47.792;12.960;2023-12-20T03:12:43;7.83;;;3.20;;
70433;SDS011;57876;47.792;12.960;2023-12-20T03:15:08;8.63;;;3.40;;
70433;SDS011;57876;47.792;12.960;2023-12-20T03:17:33;7.68;;;3.03;;
70433;SDS011;57876;47.792;12.960;2023-12-20T03:19:57;7.83;;;3.03;;
70433;SDS011;57876;47.792;12.960;2023-12-20T03:22:21;7.90;;;3.03;;
70433;SDS011;57876;47.792;12.960;2023-12-20T03:24:46;8.40;;;3.33;;
70433;SDS011;57876;47.792;12.960;2023-12-20T03:27:10;8.27;;;3.17;;
70433;SDS011;57876;47.792;12.960;2023-12-20T03:29:34;7.43;;;2.75;;
70433;SDS011;57876;47.792;12.960;2023-12-20T03:31:59;6.70;;;2.87;;
70433;SDS011;57876;47.792;12.960;2023-12-20T03:34:23;7.10;;;2.70;;
70433;SDS011;57876;47.792;12.960;2023-12-20T03:36:47;7.63;;;2.90;;
70433;SDS011;57876;47.792;12.960;2023-12-20T03:39:12;6.93;;;2.77;;
70433;SDS011;57876;47.792;12.960;2023-12-20T03:41:37;8.02;;;3.10;;
70433;SDS011;57876;47.792;12.960;2023-12-20T03:44:01;7.40;;;2.73;;
70433;SDS011;57876;47.792;12.960;2023-12-20T03:46:25;7.30;;;2.67;;
70433;SDS011;57876;47.792;12.960;2023-12-20T03:48:50;7.93;;;3.10;;
70433;SDS011;57876;47.792;12.960;2023-12-20T03:51:14;7.70;;;2.87;;
70433;SDS011;57876;47.792;12.960;2023-12-20T03:53:39;7.37;;;3.00;;
70433;SDS011;57876;47.792;12.960;2023-12-20T03:56:04;6.93;;;2.70;;
70433;SDS011;57876;47.792;12.960;2023-12-20T03:58:29;7.43;;;2.77;;
70433;SDS011;57876;47.792;12.960;2023-12-20T04:00:53;7.50;;;2.93;;
70433;SDS011;57876;47.792;12.960;2023-12-20T04:03:18;6.63;;;2.57;;
70433;SDS011;57876;47.792;12.960;2023-12-20T04:05:42;7.35;;;2.67;;
70433;SDS011;57876;47.792;12.960;2023-12-20T04:08:06;6.87;;;2.37;;
70433;SDS011;57876;47.792;12.960;2023-12-20T04:10:31;7.83;;;2.90;;
70433;SDS011;57876;47.792;12.960;2023-12-20T04:12:55;7.27;;;2.83;;
70433;SDS011;57876;47.792;12.960;2023-12-20T04:15:20;6.87;;;2.67;;
70433;SDS011;57876;47.792;12.960;2023-12-20T04:17:44;7.57;;;2.80;;
70433;SDS011;57876;47.792;12.960;2023-12-20T04:20:09;7.60;;;2.50;;
70433;SDS011;57876;47.792;12.960;2023-12-20T04:22:33;6.80;;;2.83;;
70433;SDS011;57876;47.792;12.960;2023-12-20T04:24:58;7.33;;;2.40;;
70433;SDS011;57876;47.792;12.960;2023-12-20T04:27:22;6.57;;;2.33;;
70433;SDS011;57876;47.792;12.960;2023-12-20T04:29:46;7.27;;;2.73;;
70433;SDS011;57876;47.792;12.960;2023-12-20T04:32:11;7.17;;;2.53;;
70433;SDS011;57876;47.792;12.960;2023-12-20T04:34:35;6.40;;;2.40;;
70433;SDS011;57876;47.792;12.960;2023-12-20T04:37:00;6.60;;;2.47;;
70433;SDS011;57876;47.792;12.960;2023-12-20T04:39:25;7.22;;;2.72;;
70433;SDS011;57876;47.792;12.960;2023-12-20T04:41:50;6.83;;;2.63;;
70433;SDS011;57876;47.792;12.960;2023-12-20T04:44:14;6.33;;;2.33;;
70433;SDS011;57876;47.792;12.960;2023-12-20T04:46:38;6.40;;;2.40;;
70433;SDS011;57876;47.792;12.960;2023-12-20T04:49:03;6.07;;;2.40;;
70433;SDS011;57876;47.792;12.960;2023-12-20T04:51:28;6.73;;;2.40;;
70433;SDS011;57876;47.792;12.960;2023-12-20T04:53:52;6.55;;;2.42;;
70433;SDS011;57876;47.792;12.960;2023-12-20T04:56:16;6.73;;;2.40;;
70433;SDS011;57876;47.792;12.960;2023-12-20T04:58:42;6.60;;;2.60;;
70433;SDS011;57876;47.792;12.960;2023-12-20T05:01:08;7.10;;;2.45;;
70433;SDS011;57876;47.792;12.960;2023-12-20T05:03:32;6.65;;;2.30;;
70433;SDS011;57876;47.792;12.960;2023-12-20T05:05:57;6.50;;;2.23;;
70433;SDS011;57876;47.792;12.960;2023-12-20T05:08:22;7.00;;;2.45;;
70433;SDS011;57876;47.792;12.960;2023-12-20T05:10:46;6.37;;;2.47;;
70433;SDS011;57876;47.792;12.960;2023-12-20T05:13:11;6.57;;;2.13;;
70433;SDS011;57876;47.792;12.960;2023-12-20T05:15:35;6.03;;;2.10;;
70433;SDS011;57876;47.792;12.960;2023-12-20T05:18:00;6.28;;;2.20;;
70433;SDS011;57876;47.792;12.960;2023-12-20T05:20:24;6.80;;;2.30;;
70433;SDS011;57876;47.792;12.960;2023-12-20T05:22:48;6.40;;;2.10;;
70433;SDS011;57876;47.792;12.960;2023-12-20T05:25:13;5.93;;;2.20;;
70433;SDS011;57876;47.792;12.960;2023-12-20T05:27:37;6.07;;;2.17;;
70433;SDS011;57876;47.792;12.960;2023-12-20T05:30:02;5.88;;;2.13;;
70433;SDS011;57876;47.792;12.960;2023-12-20T05:32:28;6.27;;;2.43;;
70433;SDS011;57876;47.792;12.960;2023-12-20T05:34:52;5.83;;;2.10;;
70433;SDS011;57876;47.792;12.960;2023-12-20T05:37:17;6.55;;;2.25;;
70433;SDS011;57876;47.792;12.960;2023-12-20T05:39:41;6.30;;;2.20;;
70433;SDS011;57876;47.792;12.960;2023-12-20T05:42:05;6.30;;;2.20;;
70433;SDS011;57876;47.792;12.960;2023-12-20T05:44:30;5.70;;;2.00;;
70433;SDS011;57876;47.792;12.960;2023-12-20T05:46:54;6.87;;;2.20;;
70433;SDS011;57876;47.792;12.960;2023-12-20T05:49:18;5.60;;;2.17;;
70433;SDS011;57876;47.792;12.960;2023-12-20T05:51:43;5.25;;;1.70;;
70433;SDS011;57876;47.792;12.960;2023-12-20T05:54:08;6.10;;;2.27;;
70433;SDS011;57876;47.792;12.960;2023-12-20T05:56:33;5.88;;;2.00;;
70433;SDS011;57876;47.792;12.960;2023-12-20T05:58:57;5.80;;;2.00;;
70433;SDS011;57876;47.792;12.960;2023-12-20T06:01:23;5.87;;;1.80;;
70433;SDS011;57876;47.792;12.960;2023-12-20T06:03:47;6.20;;;2.00;;
70433;SDS011;57876;47.792;12.960;2023-12-20T06:06:12;6.87;;;2.20;;
70433;SDS011;57876;47.792;12.960;2023-12-20T06:08:39;6.63;;;2.05;;
70433;SDS011;57876;47.792;12.960;2023-12-20T06:11:04;5.15;;;1.60;;
70433;SDS011;57876;47.792;12.960;2023-12-20T06:13:32;5.60;;;1.90;;
70433;SDS011;57876;47.792;12.960;2023-12-20T06:15:56;6.10;;;1.90;;
70433;SDS011;57876;47.792;12.960;2023-12-20T06:18:20;5.97;;;1.80;;
70433;SDS011;57876;47.792;12.960;2023-12-20T06:20:45;5.80;;;1.70;;
70433;SDS011;57876;47.792;12.960;2023-12-20T06:23:09;5.70;;;1.80;;
70433;SDS011;57876;47.792;12.960;2023-12-20T06:25:34;5.63;;;1.70;;
70433;SDS011;57876;47.792;12.960;2023-12-20T06:27:59;5.67;;;1.93;;
70433;SDS011;57876;47.792;12.960;2023-12-20T06:30:24;5.35;;;1.67;;
70433;SDS011;57876;47.792;12.960;2023-12-20T06:32:49;5.83;;;1.97;;
70433;SDS011;57876;47.792;12.960;2023-12-20T06:35:13;5.85;;;2.00;;
70433;SDS011;57876;47.792;12.960;2023-12-20T06:37:38;5.20;;;1.90;;
70433;SDS011;57876;47.792;12.960;2023-12-20T06:40:06;6.05;;;2.05;;
70433;SDS011;57876;47.792;12.960;2023-12-20T06:42:31;5.67;;;2.10;;
70433;SDS011;57876;47.792;12.960;2023-12-20T06:44:56;5.70;;;1.80;;
70433;SDS011;57876;47.792;12.960;2023-12-20T06:47:20;5.50;;;1.77;;
70433;SDS011;57876;47.792;12.960;2023-12-20T06:49:45;5.73;;;1.80;;
70433;SDS011;57876;47.792;12.960;2023-12-20T06:52:09;5.43;;;1.83;;
70433;SDS011;57876;47.792;12.960;2023-12-20T06:54:34;5.18;;;1.38;;
70433;SDS011;57876;47.792;12.960;2023-12-20T06:56:58;5.37;;;1.60;;
70433;SDS011;57876;47.792;12.960;2023-12-20T06:59:23;5.60;;;1.77;;
70433;SDS011;57876;47.792;12.960;2023-12-20T07:01:48;5.57;;;1.93;;
70433;SDS011;57876;47.792;12.960;2023-12-20T07:04:13;5.35;;;1.38;;
70433;SDS011;57876;47.792;12.960;2023-12-20T07:06:37;4.90;;;1.67;;
70433;SDS011;57876;47.792;12.960;2023-12-20T07:09:02;5.30;;;1.60;;
70433;SDS011;57876;47.792;12.960;2023-12-20T07:11:26;5.40;;;1.60;;
70433;SDS011;57876;47.792;12.960;2023-12-20T07:13:50;5.60;;;1.70;;
70433;SDS011;57876;47.792;12.960;2023-12-20T07:16:15;5.63;;;1.60;;
70433;SDS011;57876;47.792;12.960;2023-12-20T07:18:39;5.38;;;1.40;;
70433;SDS011;57876;47.792;12.960;2023-12-20T07:21:04;5.27;;;1.70;;
70433;SDS011;57876;47.792;12.960;2023-12-20T07:23:28;5.43;;;1.63;;
70433;SDS011;57876;47.792;12.960;2023-12-20T07:25:52;5.30;;;1.60;;
70433;SDS011;57876;47.792;12.960;2023-12-20T07:28:17;4.53;;;1.30;;
70433;SDS011;57876;47.792;12.960;2023-12-20T07:30:41;5.47;;;1.53;;
70433;SDS011;57876;47.792;12.960;2023-12-20T07:33:06;5.13;;;1.60;;
70433;SDS011;57876;47.792;12.960;2023-12-20T07:35:32;5.32;;;1.58;;
70433;SDS011;57876;47.792;12.960;2023-12-20T07:37:57;5.00;;;1.67;;
70433;SDS011;57876;47.792;12.960;2023-12-20T07:40:22;5.07;;;1.42;;
70433;SDS011;57876;47.792;12.960;2023-12-20T07:42:47;4.93;;;1.52;;
70433;SDS011;57876;47.792;12.960;2023-12-20T07:45:12;4.47;;;1.30;;
70433;SDS011;57876;47.792;12.960;2023-12-20T07:47:36;5.07;;;1.37;;
70433;SDS011;57876;47.792;12.960;2023-12-20T07:50:01;4.85;;;1.38;;
70433;SDS011;57876;47.792;12.960;2023-12-20T07:52:26;4.93;;;1.57;;
70433;SDS011;57876;47.792;12.960;2023-12-20T07:54:51;5.63;;;1.73;;
70433;SDS011;57876;47.792;12.960;2023-12-20T07:57:15;5.20;;;1.50;;
70433;SDS011;57876;47.792;12.960;2023-12-20T07:59:40;4.87;;;1.40;;
70433;SDS011;57876;47.792;12.960;2023-12-20T08:02:04;5.50;;;1.50;;
70433;SDS011;57876;47.792;12.960;2023-12-20T08:04:28;5.25;;;1.50;;
70433;SDS011;57876;47.792;12.960;2023-12-20T08:06:53;4.90;;;1.40;;
70433;SDS011;57876;47.792;12.960;2023-12-20T08:09:17;5.03;;;1.30;;
70433;SDS011;57876;47.792;12.960;2023-12-20T08:11:48;4.60;;;1.37;;
70433;SDS011;57876;47.792;12.960;2023-12-20T08:14:13;4.88;;;1.40;;
70433;SDS011;57876;47.792;12.960;2023-12-20T08:16:37;5.03;;;1.30;;
70433;SDS011;57876;47.792;12.960;2023-12-20T08:19:02;4.97;;;1.50;;
70433;SDS011;57876;47.792;12.960;2023-12-20T08:21:26;4.70;;;1.40;;
70433;SDS011;57876;47.792;12.960;2023-12-20T08:23:50;4.80;;;1.50;;
70433;SDS011;57876;47.792;12.960;2023-12-20T08:26:18;4.73;;;1.20;;
70433;SDS011;57876;47.792;12.960;2023-12-20T08:28:44;4.75;;;1.30;;
70433;SDS011;57876;47.792;12.960;2023-12-20T08:31:13;4.70;;;1.50;;
70433;SDS011;57876;47.792;12.960;2023-12-20T08:33:39;4.60;;;1.30;;
70433;SDS011;57876;47.792;12.960;2023-12-20T08:36:03;5.10;;;1.40;;
70433;SDS011;57876;47.792;12.960;2023-12-20T08:38:29;4.63;;;1.13;;
70433;SDS011;57876;47.792;12.960;2023-12-20T08:40:54;4.97;;;1.35;;
70433;SDS011;57876;47.792;12.960;2023-12-20T08:43:18;4.80;;;1.40;;
70433;SDS011;57876;47.792;12.960;2023-12-20T08:45:42;5.17;;;1.50;;
70433;SDS011;57876;47.792;12.960;2023-12-20T08:48:07;4.60;;;1.30;;
70433;SDS011;57876;47.792;12.960;2023-12-20T08:50:31;4.83;;;1.40;;
70433;SDS011;57876;47.792;12.960;2023-12-20T08:52:55;4.77;;;1.40;;
70433;SDS011;57876;47.792;12.960;2023-12-20T08:55:20;4.82;;;1.30;;
70433;SDS011;57876;47.792;12.960;2023-12-20T08:57:44;4.70;;;1.30;;
70433;SDS011;57876;47.792;12.960;2023-12-20T09:00:09;4.37;;;1.20;;
70433;SDS011;57876;47.792;12.960;2023-12-20T09:02:33;4.45;;;1.20;;
70433;SDS011;57876;47.792;12.960;2023-12-20T09:05:00;4.75;;;1.20;;
70433;SDS011;57876;47.792;12.960;2023-12-20T09:07:24;4.40;;;1.17;;
70433;SDS011;57876;47.792;12.960;2023-12-20T09:09:50;4.88;;;1.40;;
70433;SDS011;57876;47.792;12.960;2023-12-20T09:12:14;4.73;;;1.40;;
70433;SDS011;57876;47.792;12.960;2023-12-20T09:14:39;4.80;;;1.30;;
70433;SDS011;57876;47.792;12.960;2023-12-20T09:17:03;4.30;;;1.10;;
70433;SDS011;57876;47.792;12.960;2023-12-20T09:19:27;4.30;;;1.00;;
70433;SDS011;57876;47.792;12.960;2023-12-20T09:21:52;4.33;;;1.10;;
70433;SDS011;57876;47.792;12.960;2023-12-20T09:24:16;4.70;;;1.30;;
70433;SDS011;57876;47.792;12.960;2023-12-20T09:26:41;4.80;;;1.17;;
70433;SDS011;57876;47.792;12.960;2023-12-20T09:29:06;4.23;;;1.10;;
70433;SDS011;57876;47.792;12.960;2023-12-20T09:31:31;4.70;;;1.23;;
70433;SDS011;57876;47.792;12.960;2023-12-20T09:33:56;5.17;;;1.40;;
70433;SDS011;57876;47.792;12.960;2023-12-20T09:36:20;4.37;;;1.07;;
70433;SDS011;57876;47.792;12.960;2023-12-20T09:38:44;3.83;;;0.97;;
70433;SDS011;57876;47.792;12.960;2023-12-20T09:41:09;4.40;;;1.10;;
70433;SDS011;57876;47.792;12.960;2023-12-20T09:43:35;4.40;;;1.20;;
70433;SDS011;57876;47.792;12.960;2023-12-20T09:46:01;4.60;;;1.10;;
70433;SDS011;57876;47.792;12.960;2023-12-20T09:48:29;4.70;;;1.00;;
70433;SDS011;57876;47.792;12.960;2023-12-20T09:50:55;4.30;;;1.00;;
70433;SDS011;57876;47.792;12.960;2023-12-20T09:53:20;4.27;;;1.07;;
70433;SDS011;57876;47.792;12.960;2023-12-20T09:55:47;4.38;;;1.10;;
70433;SDS011;57876;47.792;12.960;2023-12-20T09:58:13;4.28;;;1.10;;
70433;SDS011;57876;47.792;12.960;2023-12-20T10:00:37;4.57;;;1.23;;
70433;SDS011;57876;47.792;12.960;2023-12-20T10:03:02;4.37;;;1.10;;
70433;SDS011;57876;47.792;12.960;2023-12-20T10:05:29;4.15;;;1.00;;
70433;SDS011;57876;47.792;12.960;2023-12-20T10:07:55;4.18;;;1.20;;
70433;SDS011;57876;47.792;12.960;2023-12-20T10:10:20;4.27;;;1.00;;
70433;SDS011;57876;47.792;12.960;2023-12-20T10:15:29;4.50;;;1.20;;
70433;SDS011;57876;47.792;12.960;2023-12-20T10:17:53;4.18;;;1.20;;
70433;SDS011;57876;47.792;12.960;2023-12-20T10:20:18;4.40;;;1.00;;
70433;SDS011;57876;47.792;12.960;2023-12-20T10:22:43;4.10;;;1.10;;
70433;SDS011;57876;47.792;12.960;2023-12-20T10:25:07;4.67;;;1.07;;
70433;SDS011;57876;47.792;12.960;2023-12-20T10:27:32;4.20;;;1.00;;
70433;SDS011;57876;47.792;12.960;2023-12-20T10:29:58;3.90;;;1.00;;
70433;SDS011;57876;47.792;12.960;2023-12-20T10:34:53;4.10;;;0.90;;
70433;SDS011;57876;47.792;12.960;2023-12-20T10:37:18;4.68;;;1.10;;
70433;SDS011;57876;47.792;12.960;2023-12-20T10:39:43;4.33;;;1.00;;
70433;SDS011;57876;47.792;12.960;2023-12-20T10:42:07;4.88;;;1.20;;
70433;SDS011;57876;47.792;12.960;2023-12-20T10:44:36;4.03;;;0.98;;
70433;SDS011;57876;47.792;12.960;2023-12-20T10:47:00;4.37;;;1.00;;
70433;SDS011;57876;47.792;12.960;2023-12-20T10:49:25;4.32;;;1.00;;
70433;SDS011;57876;47.792;12.960;2023-12-20T10:51:52;3.97;;;1.00;;
70433;SDS011;57876;47.792;12.960;2023-12-20T10:54:18;4.40;;;1.02;;
70433;SDS011;57876;47.792;12.960;2023-12-20T10:56:42;3.90;;;0.80;;
70433;SDS011;57876;47.792;12.960;2023-12-20T10:59:07;4.13;;;0.90;;
70433;SDS011;57876;47.792;12.960;2023-12-20T11:01:34;4.23;;;1.20;;
70433;SDS011;57876;47.792;12.960;2023-12-20T11:04:01;3.75;;;0.80;;
70433;SDS011;57876;47.792;12.960;2023-12-20T11:09:16;3.75;;;0.75;;
70433;SDS011;57876;47.792;12.960;2023-12-20T11:12:01;3.90;;;1.00;;
70433;SDS011;57876;47.792;12.960;2023-12-20T11:17:10;3.95;;;1.08;;
70433;SDS011;57876;47.792;12.960;2023-12-20T11:22:16;4.13;;;1.00;;
70433;SDS011;57876;47.792;12.960;2023-12-20T11:24:43;3.90;;;0.87;;
70433;SDS011;57876;47.792;12.960;2023-12-20T11:27:10;4.68;;;1.00;;
70433;SDS011;57876;47.792;12.960;2023-12-20T11:29:37;4.00;;;0.90;;
70433;SDS011;57876;47.792;12.960;2023-12-20T11:32:03;3.63;;;0.77;;
70433;SDS011;57876;47.792;12.960;2023-12-20T11:34:50;4.10;;;0.85;;
70433;SDS011;57876;47.792;12.960;2023-12-20T11:37:19;3.85;;;0.82;;
70433;SDS011;57876;47.792;12.960;2023-12-20T11:39:44;4.30;;;1.47;;
70433;SDS011;57876;47.792;12.960;2023-12-20T11:42:08;4.87;;;1.00;;
70433;SDS011;57876;47.792;12.960;2023-12-20T11:44:34;4.03;;;0.90;;
70433;SDS011;57876;47.792;12.960;2023-12-20T11:47:00;4.10;;;0.90;;
70433;SDS011;57876;47.792;12.960;2023-12-20T11:49:24;3.77;;;0.70;;
70433;SDS011;57876;47.792;12.960;2023-12-20T11:51:49;3.80;;;0.90;;
70433;SDS011;57876;47.792;12.960;2023-12-20T11:54:13;3.57;;;0.83;;
70433;SDS011;57876;47.792;12.960;2023-12-20T11:56:39;3.97;;;0.82;;
70433;SDS011;57876;47.792;12.960;2023-12-20T11:59:03;3.67;;;0.90;;
70433;SDS011;57876;47.792;12.960;2023-12-20T12:01:28;3.50;;;0.70;;
70433;SDS011;57876;47.792;12.960;2023-12-20T12:04:04;3.57;;;0.73;;
70433;SDS011;57876;47.792;12.960;2023-12-20T12:06:29;3.90;;;0.80;;
70433;SDS011;57876;47.792;12.960;2023-12-20T12:08:54;3.80;;;0.80;;
70433;SDS011;57876;47.792;12.960;2023-12-20T12:11:19;3.80;;;0.85;;
70433;SDS011;57876;47.792;12.960;2023-12-20T12:13:43;3.60;;;0.70;;
70433;SDS011;57876;47.792;12.960;2023-12-20T12:16:08;3.60;;;0.80;;
70433;SDS011;57876;47.792;12.960;2023-12-20T12:18:34;3.70;;;0.80;;
70433;SDS011;57876;47.792;12.960;2023-12-20T12:21:00;3.65;;;0.73;;
70433;SDS011;57876;47.792;12.960;2023-12-20T12:23:25;3.55;;;0.77;;
70433;SDS011;57876;47.792;12.960;2023-12-20T12:25:50;4.03;;;0.70;;
70433;SDS011;57876;47.792;12.960;2023-12-20T12:28:14;3.80;;;0.80;;
70433;SDS011;57876;47.792;12.960;2023-12-20T12:30:38;3.70;;;0.80;;
70433;SDS011;57876;47.792;12.960;2023-12-20T12:33:03;3.73;;;0.90;;
70433;SDS011;57876;47.792;12.960;2023-12-20T12:35:28;4.10;;;0.95;;
70433;SDS011;57876;47.792;12.960;2023-12-20T12:37:52;3.47;;;0.70;;
70433;SDS011;57876;47.792;12.960;2023-12-20T12:40:17;4.00;;;0.90;;
70433;SDS011;57876;47.792;12.960;2023-12-20T12:42:42;3.38;;;0.60;;
70433;SDS011;57876;47.792;12.960;2023-12-20T12:45:08;3.20;;;0.70;;
70433;SDS011;57876;47.792;12.960;2023-12-20T12:47:33;3.67;;;0.90;;
70433;SDS011;57876;47.792;12.960;2023-12-20T12:49:58;3.20;;;0.60;;
70433;SDS011;57876;47.792;12.960;2023-12-20T12:52:23;3.50;;;0.70;;
70433;SDS011;57876;47.792;12.960;2023-12-20T12:54:47;3.50;;;0.70;;
70433;SDS011;57876;47.792;12.960;2023-12-20T12:57:13;3.80;;;0.70;;
70433;SDS011;57876;47.792;12.960;2023-12-20T12:59:41;3.60;;;0.70;;
70433;SDS011;57876;47.792;12.960;2023-12-20T13:02:08;3.28;;;0.55;;
70433;SDS011;57876;47.792;12.960;2023-12-20T13:04:32;3.73;;;0.80;;
70433;SDS011;57876;47.792;12.960;2023-12-20T13:06:56;3.70;;;0.80;;
70433;SDS011;57876;47.792;12.960;2023-12-20T13:09:21;3.58;;;0.80;;
70433;SDS011;57876;47.792;12.960;2023-12-20T13:11:45;3.27;;;0.70;;
70433;SDS011;57876;47.792;12.960;2023-12-20T13:14:10;2.97;;;0.60;;
70433;SDS011;57876;47.792;12.960;2023-12-20T13:16:39;2.92;;;0.60;;
70433;SDS011;57876;47.792;12.960;2023-12-20T13:19:03;3.77;;;0.73;;
70433;SDS011;57876;47.792;12.960;2023-12-20T13:21:28;3.40;;;0.70;;
70433;SDS011;57876;47.792;12.960;2023-12-20T13:23:54;3.55;;;0.70;;
70433;SDS011;57876;47.792;12.960;2023-12-20T13:26:19;3.37;;;0.63;;
70433;SDS011;57876;47.792;12.960;2023-12-20T13:28:43;3.40;;;0.70;;
70433;SDS011;57876;47.792;12.960;2023-12-20T13:31:08;3.58;;;0.70;;
70433;SDS011;57876;47.792;12.960;2023-12-20T13:33:32;3.70;;;0.80;;
70433;SDS011;57876;47.792;12.960;2023-12-20T13:35:56;3.53;;;0.73;;
70433;SDS011;57876;47.792;12.960;2023-12-20T13:38:22;3.38;;;0.70;;
70433;SDS011;57876;47.792;12.960;2023-12-20T13:40:46;3.93;;;0.70;;
70433;SDS011;57876;47.792;12.960;2023-12-20T13:43:10;3.90;;;0.87;;
70433;SDS011;57876;47.792;12.960;2023-12-20T13:45:36;3.72;;;0.80;;
70433;SDS011;57876;47.792;12.960;2023-12-20T13:48:01;3.40;;;0.70;;
70433;SDS011;57876;47.792;12.960;2023-12-20T13:50:25;3.83;;;0.90;;
70433;SDS011;57876;47.792;12.960;2023-12-20T13:52:50;3.63;;;0.70;;
70433;SDS011;57876;47.792;12.960;2023-12-20T13:55:14;3.37;;;0.70;;
70433;SDS011;57876;47.792;12.960;2023-12-20T13:57:39;3.33;;;0.57;;
70433;SDS011;57876;47.792;12.960;2023-12-20T14:00:04;3.40;;;0.70;;
70433;SDS011;57876;47.792;12.960;2023-12-20T14:02:29;3.88;;;0.80;;
70433;SDS011;57876;47.792;12.960;2023-12-20T14:04:54;3.30;;;0.67;;
70433;SDS011;57876;47.792;12.960;2023-12-20T14:07:18;2.93;;;0.67;;
70433;SDS011;57876;47.792;12.960;2023-12-20T14:09:42;3.53;;;0.80;;
70433;SDS011;57876;47.792;12.960;2023-12-20T14:12:09;3.67;;;0.80;;
70433;SDS011;57876;47.792;12.960;2023-12-20T14:14:34;2.83;;;0.60;;
70433;SDS011;57876;47.792;12.960;2023-12-20T14:16:58;3.80;;;0.70;;
70433;SDS011;57876;47.792;12.960;2023-12-20T14:19:22;3.63;;;0.70;;
70433;SDS011;57876;47.792;12.960;2023-12-20T14:21:47;3.30;;;0.70;;
70433;SDS011;57876;47.792;12.960;2023-12-20T14:24:12;3.37;;;0.70;;
70433;SDS011;57876;47.792;12.960;2023-12-20T14:26:38;3.40;;;0.70;;
70433;SDS011;57876;47.792;12.960;2023-12-20T14:29:03;3.25;;;0.60;;
70433;SDS011;57876;47.792;12.960;2023-12-20T14:31:28;3.33;;;0.70;;
70433;SDS011;57876;47.792;12.960;2023-12-20T14:33:53;3.80;;;0.80;;
70433;SDS011;57876;47.792;12.960;2023-12-20T14:36:18;3.53;;;0.70;;